Time,TemperatureF,DewpointF,PressureIn,WindDirection,WindDirectionDegrees,WindSpeedMPH,WindSpeedGustMPH,Humidity,HourlyPrecipIn,Conditions,Clouds,dailyrainin,SoftwareType,DateUTC
2013-09-16 02:30:00,50.9,49.5,29.71,NW,311,2.0,-999.0,95,0.00,,,0.00,Wunderground v.1.15,2013-09-16 06:30:00,
2013-09-16 02:35:00,51.0,49.6,29.71,WNW,294,2.0,-999.0,95,0.00,,,0.00,Wunderground v.1.15,2013-09-16 06:35:00,
2013-09-16 02:40:00,50.8,49.4,29.71,WNW,294,2.0,-999.0,95,0.00,,,0.00,Wunderground v.1.15,2013-09-16 06:40:00,
2013-09-16 02:45:00,50.8,49.4,29.71,WNW,294,3.0,-999.0,95,0.00,,,0.00,Wunderground v.1.15,2013-09-16 06:45:00,
2013-09-16 02:50:00,50.8,49.4,29.71,WNW,292,4.0,-999.0,95,0.00,,,0.00,Wunderground v.1.15,2013-09-16 06:50:00,
2013-09-16 03:00:00,50.7,49.3,29.71,WNW,292,3.0,-999.0,95,0.00,,,0.00,Wunderground v.1.15,2013-09-16 07:00:00,
2013-09-16 03:10:00,50.8,49.4,29.71,WNW,292,2.0,-999.0,95,0.00,,,0.00,Wunderground v.1.15,2013-09-16 07:10:00,
2013-09-16 03:15:00,50.8,49.4,29.71,WNW,292,3.0,-999.0,95,0.00,,,0.00,Wunderground v.1.15,2013-09-16 07:15:00,
2013-09-16 03:20:00,50.8,49.4,29.71,WNW,292,4.0,-999.0,95,0.00,,,0.00,Wunderground v.1.15,2013-09-16 07:20:00,
2013-09-16 03:30:00,50.9,49.5,29.71,WNW,292,4.0,-999.0,95,0.00,,,0.00,Wunderground v.1.15,2013-09-16 07:30:00,
2013-09-16 03:35:00,51.0,49.6,29.71,WNW,292,4.0,-999.0,95,0.00,,,0.00,Wunderground v.1.15,2013-09-16 07:35:00,
2013-09-16 03:40:00,51.0,49.3,29.71,WNW,292,4.0,-999.0,94,0.00,,,0.00,Wunderground v.1.15,2013-09-16 07:40:00,
2013-09-16 03:45:00,51.0,49.3,29.71,West,275,4.0,-999.0,94,0.00,,,0.00,Wunderground v.1.15,2013-09-16 07:45:00,
2013-09-16 03:50:00,51.0,49.3,29.71,WSW,244,5.0,-999.0,94,0.00,,,0.00,Wunderground v.1.15,2013-09-16 07:50:00,
2013-09-16 03:55:00,51.0,49.3,29.72,WSW,238,5.0,-999.0,94,0.00,,,0.00,Wunderground v.1.15,2013-09-16 07:55:00,
2013-09-16 04:00:00,51.0,49.3,29.71,WSW,238,5.0,-999.0,94,0.00,,,0.00,Wunderground v.1.15,2013-09-16 08:00:00,
2013-09-16 04:10:00,51.0,49.3,29.71,WSW,238,6.0,-999.0,94,0.00,,,0.00,Wunderground v.1.15,2013-09-16 08:10:00,
2013-09-16 04:15:00,51.0,49.3,29.71,WSW,237,5.0,-999.0,94,0.00,,,0.00,Wunderground v.1.15,2013-09-16 08:15:00,
2013-09-16 04:20:00,51.0,49.3,29.71,WSW,237,5.0,-999.0,94,0.00,,,0.00,Wunderground v.1.15,2013-09-16 08:20:00,
2013-09-16 04:25:00,51.0,49.3,29.71,WSW,237,5.0,-999.0,94,0.00,,,0.00,Wunderground v.1.15,2013-09-16 08:25:00,
2013-09-16 04:35:00,51.1,49.4,29.71,WSW,237,5.0,-999.0,94,0.00,,,0.00,Wunderground v.1.15,2013-09-16 08:35:00,
2013-09-16 04:40:00,51.0,49.3,29.72,WSW,237,4.0,-999.0,94,0.00,,,0.00,Wunderground v.1.15,2013-09-16 08:40:00,
2013-09-16 04:45:00,51.0,49.0,29.72,WSW,237,4.0,-999.0,93,0.00,,,0.00,Wunderground v.1.15,2013-09-16 08:45:00,
2013-09-16 04:50:00,50.9,48.9,29.72,WSW,237,4.0,-999.0,93,0.00,,,0.00,Wunderground v.1.15,2013-09-16 08:50:00,
2013-09-16 04:55:00,50.8,48.8,29.72,WSW,237,4.0,-999.0,93,0.00,,,0.00,Wunderground v.1.15,2013-09-16 08:55:00,
2013-09-16 05:00:00,50.8,48.8,29.72,WSW,237,3.0,-999.0,93,0.00,,,0.00,Wunderground v.1.15,2013-09-16 09:00:00,
2013-09-16 05:10:00,50.7,48.7,29.72,WSW,237,4.0,-999.0,93,0.00,,,0.00,Wunderground v.1.15,2013-09-16 09:10:00,
2013-09-16 05:15:00,50.6,48.7,29.72,WSW,237,4.0,-999.0,93,0.00,,,0.00,Wunderground v.1.15,2013-09-16 09:15:00,
2013-09-16 05:20:00,50.6,48.7,29.72,WSW,237,4.0,-999.0,93,0.00,,,0.00,Wunderground v.1.15,2013-09-16 09:20:00,
2013-09-16 05:25:00,50.5,48.6,29.73,WSW,237,4.0,-999.0,93,0.00,,,0.00,Wunderground v.1.15,2013-09-16 09:25:00,
2013-09-16 05:30:00,50.5,48.6,29.73,WSW,237,4.0,-999.0,93,0.00,,,0.00,Wunderground v.1.15,2013-09-16 09:30:00,
2013-09-16 05:40:00,50.4,48.5,29.73,WSW,237,4.0,-999.0,93,0.00,,,0.00,Wunderground v.1.15,2013-09-16 09:40:00,
2013-09-16 05:45:00,50.2,48.3,29.73,WSW,237,3.0,-999.0,93,0.00,,,0.00,Wunderground v.1.15,2013-09-16 09:45:00,
2013-09-16 05:50:00,50.3,48.4,29.73,WSW,237,4.0,-999.0,93,0.00,,,0.00,Wunderground v.1.15,2013-09-16 09:50:00,
2013-09-16 05:55:00,50.2,48.3,29.73,WSW,237,4.0,-999.0,93,0.00,,,0.00,Wunderground v.1.15,2013-09-16 09:55:00,
2013-09-16 06:00:00,50.2,48.3,29.73,WSW,237,4.0,-999.0,93,0.00,,,0.00,Wunderground v.1.15,2013-09-16 10:00:00,
2013-09-16 06:10:00,50.0,48.1,29.73,WSW,237,3.0,-999.0,93,0.00,,,0.00,Wunderground v.1.15,2013-09-16 10:10:00,
2013-09-16 06:15:00,49.7,47.8,29.74,WSW,237,2.0,-999.0,93,0.00,,,0.00,Wunderground v.1.15,2013-09-16 10:15:00,
2013-09-16 06:20:00,49.5,47.6,29.74,WSW,237,2.0,-999.0,93,0.00,,,0.00,Wunderground v.1.15,2013-09-16 10:20:00,
2013-09-16 06:25:00,49.5,47.6,29.74,WSW,237,2.0,-999.0,93,0.00,,,0.00,Wunderground v.1.15,2013-09-16 10:25:00,
2013-09-16 06:30:00,49.5,47.6,29.73,WSW,237,2.0,-999.0,93,0.00,,,0.00,Wunderground v.1.15,2013-09-16 10:30:00,
2013-09-16 06:35:00,49.5,47.8,29.73,WSW,237,2.0,-999.0,94,0.00,,,0.00,Wunderground v.1.15,2013-09-16 10:35:00,
2013-09-16 06:40:00,49.6,47.9,29.73,WSW,237,3.0,-999.0,94,0.00,,,0.00,Wunderground v.1.15,2013-09-16 10:40:00,
2013-09-16 06:45:00,49.9,48.2,29.73,WSW,237,3.0,-999.0,94,0.00,,,0.00,Wunderground v.1.15,2013-09-16 10:45:00,
2013-09-16 06:50:00,50.1,48.4,29.74,WSW,237,3.0,-999.0,94,0.00,,,0.00,Wunderground v.1.15,2013-09-16 10:50:00,
2013-09-16 06:55:00,50.3,48.6,29.74,WSW,237,2.0,-999.0,94,0.00,,,0.00,Wunderground v.1.15,2013-09-16 10:55:00,
2013-09-16 07:00:00,50.5,49.1,29.74,WSW,237,2.0,-999.0,95,0.00,,,0.00,Wunderground v.1.15,2013-09-16 11:00:00,
2013-09-16 07:10:00,50.8,49.1,29.74,WSW,237,3.0,-999.0,94,0.00,,,0.00,Wunderground v.1.15,2013-09-16 11:10:00,
2013-09-16 07:15:00,50.9,49.2,29.74,WSW,237,3.0,-999.0,94,0.00,,,0.00,Wunderground v.1.15,2013-09-16 11:15:00,
2013-09-16 07:20:00,51.0,49.3,29.74,WSW,237,3.0,-999.0,94,0.00,,,0.00,Wunderground v.1.15,2013-09-16 11:20:00,
2013-09-16 07:25:00,51.1,49.4,29.74,WSW,237,3.0,-999.0,94,0.00,,,0.00,Wunderground v.1.15,2013-09-16 11:25:00,
2013-09-16 07:30:00,51.3,49.6,29.74,WSW,237,3.0,-999.0,94,0.00,,,0.00,Wunderground v.1.15,2013-09-16 11:30:00,
2013-09-16 07:35:00,51.3,49.6,29.74,WSW,237,3.0,-999.0,94,0.00,,,0.00,Wunderground v.1.15,2013-09-16 11:35:00,
2013-09-16 07:40:00,51.4,49.7,29.74,WSW,237,4.0,-999.0,94,0.00,,,0.00,Wunderground v.1.15,2013-09-16 11:40:00,
2013-09-16 07:50:00,51.6,49.9,29.75,WSW,237,4.0,-999.0,94,0.00,,,0.00,Wunderground v.1.15,2013-09-16 11:50:00,
2013-09-16 07:55:00,51.7,50.0,29.75,WSW,237,4.0,-999.0,94,0.00,,,0.00,Wunderground v.1.15,2013-09-16 11:55:00,
2013-09-16 08:00:00,51.7,50.0,29.75,WSW,237,4.0,-999.0,94,0.00,,,0.00,Wunderground v.1.15,2013-09-16 12:00:00,
2013-09-16 08:10:00,51.6,49.9,29.75,WSW,237,4.0,-999.0,94,0.00,,,0.00,Wunderground v.1.15,2013-09-16 12:10:00,
2013-09-16 08:20:00,52.4,50.7,29.75,WSW,237,4.0,-999.0,94,0.00,,,0.00,Wunderground v.1.15,2013-09-16 12:20:00,
2013-09-16 08:25:00,52.9,51.2,29.75,WSW,237,3.0,-999.0,94,0.00,,,0.00,Wunderground v.1.15,2013-09-16 12:25:00,
2013-09-16 08:30:00,53.4,51.7,29.75,WSW,237,2.0,-999.0,94,0.00,,,0.00,Wunderground v.1.15,2013-09-16 12:30:00,
2013-09-16 08:35:00,53.8,52.1,29.75,WSW,237,2.0,-999.0,94,0.00,,,0.00,Wunderground v.1.15,2013-09-16 12:35:00,
2013-09-16 08:40:00,54.2,52.5,29.75,WNW,298,3.0,-999.0,94,0.00,,,0.00,Wunderground v.1.15,2013-09-16 12:40:00,
2013-09-16 08:45:00,54.5,52.5,29.75,WNW,302,4.0,-999.0,93,0.00,,,0.00,Wunderground v.1.15,2013-09-16 12:45:00,
2013-09-16 08:55:00,55.1,52.8,29.76,NW,313,6.0,-999.0,92,0.00,,,0.00,Wunderground v.1.15,2013-09-16 12:55:00,
2013-09-16 09:00:00,55.1,52.5,29.76,NW,307,6.0,-999.0,91,0.00,,,0.00,Wunderground v.1.15,2013-09-16 13:00:00,
2013-09-16 09:10:00,54.9,52.3,29.77,WNW,302,8.0,-999.0,91,0.00,,,0.00,Wunderground v.1.15,2013-09-16 13:10:00,
2013-09-16 09:15:00,54.9,52.0,29.77,WNW,294,8.0,-999.0,90,0.00,,,0.00,Wunderground v.1.15,2013-09-16 13:15:00,
2013-09-16 09:25:00,54.9,52.0,29.77,NW,308,6.0,-999.0,90,0.00,,,0.00,Wunderground v.1.15,2013-09-16 13:25:00,
2013-09-16 09:30:00,55.1,52.2,29.77,NW,311,6.0,-999.0,90,0.00,,,0.00,Wunderground v.1.15,2013-09-16 13:30:00,
2013-09-16 09:35:00,55.3,52.4,29.77,NW,317,6.0,-999.0,90,0.00,,,0.00,Wunderground v.1.15,2013-09-16 13:35:00,
2013-09-16 09:40:00,55.5,52.6,29.78,NW,311,6.0,-999.0,90,0.00,,,0.00,Wunderground v.1.15,2013-09-16 13:40:00,
2013-09-16 09:45:00,55.7,52.8,29.78,WNW,288,6.0,-999.0,90,0.00,,,0.00,Wunderground v.1.15,2013-09-16 13:45:00,
2013-09-16 09:50:00,55.7,52.5,29.78,NW,309,6.0,-999.0,89,0.00,,,0.00,Wunderground v.1.15,2013-09-16 13:50:00,
2013-09-16 09:55:00,56.1,52.9,29.78,NW,321,6.0,-999.0,89,0.00,,,0.00,Wunderground v.1.15,2013-09-16 13:55:00,
2013-09-16 10:00:00,56.4,52.9,29.78,NW,316,5.0,-999.0,88,0.00,,,0.00,Wunderground v.1.15,2013-09-16 14:00:00,
2013-09-16 10:10:00,56.7,53.2,29.78,NW,316,4.0,-999.0,88,0.00,,,0.00,Wunderground v.1.15,2013-09-16 14:10:00,
2013-09-16 10:15:00,56.8,53.0,29.78,NW,319,4.0,-999.0,87,0.00,,,0.00,Wunderground v.1.15,2013-09-16 14:15:00,
2013-09-16 10:20:00,56.8,53.0,29.78,NNW,333,5.0,-999.0,87,0.00,,,0.00,Wunderground v.1.15,2013-09-16 14:20:00,
2013-09-16 10:30:00,56.8,53.0,29.78,NNW,338,4.0,-999.0,87,0.00,,,0.00,Wunderground v.1.15,2013-09-16 14:30:00,
2013-09-16 10:35:00,56.8,53.0,29.79,NNW,338,4.0,-999.0,87,0.00,,,0.00,Wunderground v.1.15,2013-09-16 14:35:00,
2013-09-16 10:40:00,56.7,52.9,29.79,NNW,342,4.0,-999.0,87,0.00,,,0.00,Wunderground v.1.15,2013-09-16 14:40:00,
2013-09-16 10:45:00,56.6,53.1,29.79,NNW,343,5.0,-999.0,88,0.00,,,0.00,Wunderground v.1.15,2013-09-16 14:45:00,
2013-09-16 10:50:00,56.5,53.0,29.79,NNW,344,5.0,-999.0,88,0.00,,,0.00,Wunderground v.1.15,2013-09-16 14:50:00,
2013-09-16 10:55:00,56.3,52.8,29.79,NNW,346,5.0,-999.0,88,0.00,,,0.00,Wunderground v.1.15,2013-09-16 14:55:00,
2013-09-16 11:00:00,56.4,52.9,29.79,NNW,345,5.0,-999.0,88,0.00,,,0.00,Wunderground v.1.15,2013-09-16 15:00:00,
2013-09-16 11:10:00,56.4,53.2,29.79,NNW,344,3.0,-999.0,89,0.00,,,0.00,Wunderground v.1.15,2013-09-16 15:10:00,
2013-09-16 11:20:00,56.5,53.0,29.80,NNW,345,4.0,-999.0,88,0.00,,,0.00,Wunderground v.1.15,2013-09-16 15:20:00,
2013-09-16 11:25:00,56.4,53.2,29.80,NNW,345,5.0,-999.0,89,0.00,,,0.00,Wunderground v.1.15,2013-09-16 15:25:00,
2013-09-16 11:30:00,56.3,53.1,29.80,NNW,345,4.0,-999.0,89,0.00,,,0.00,Wunderground v.1.15,2013-09-16 15:30:00,
2013-09-16 11:35:00,56.2,53.3,29.80,NNW,346,4.0,-999.0,90,0.00,,,0.00,Wunderground v.1.15,2013-09-16 15:35:00,
2013-09-16 11:40:00,55.8,52.9,29.80,North,5,6.0,-999.0,90,0.00,,,0.00,Wunderground v.1.15,2013-09-16 15:40:00,
2013-09-16 11:50:00,54.2,51.6,29.81,NNE,14,9.0,-999.0,91,0.00,,,0.00,Wunderground v.1.15,2013-09-16 15:50:00,
2013-09-16 11:55:00,53.6,51.3,29.81,NNE,20,10.0,-999.0,92,0.00,,,0.00,Wunderground v.1.15,2013-09-16 15:55:00,
2013-09-16 12:00:00,53.4,51.4,29.81,NNE,22,9.0,-999.0,93,0.00,,,0.00,Wunderground v.1.15,2013-09-16 16:00:00,
2013-09-16 12:05:00,53.3,51.3,29.81,NNE,24,7.0,-999.0,93,0.00,,,0.00,Wunderground v.1.15,2013-09-16 16:05:00,
2013-09-16 12:10:00,53.0,51.0,29.81,NNE,15,7.0,-999.0,93,0.00,,,0.00,Wunderground v.1.15,2013-09-16 16:10:00,
2013-09-16 12:15:00,52.8,51.1,29.81,North,5,9.0,-999.0,94,0.00,,,0.00,Wunderground v.1.15,2013-09-16 16:15:00,
2013-09-16 12:20:00,52.6,50.9,29.82,North,5,8.0,-999.0,94,0.00,,,0.00,Wunderground v.1.15,2013-09-16 16:20:00,
2013-09-16 12:25:00,52.3,50.6,29.82,NNE,17,9.0,-999.0,94,0.00,,,0.00,Wunderground v.1.15,2013-09-16 16:25:00,
2013-09-16 12:30:00,52.1,50.4,29.82,North,355,8.0,-999.0,94,0.00,,,0.00,Wunderground v.1.15,2013-09-16 16:30:00,
2013-09-16 12:40:00,51.5,49.8,29.83,NNE,16,8.0,-999.0,94,0.00,,,0.00,Wunderground v.1.15,2013-09-16 16:40:00,
2013-09-16 12:45:00,51.2,49.5,29.83,North,9,8.0,-999.0,94,0.00,,,0.00,Wunderground v.1.15,2013-09-16 16:45:00,
2013-09-16 12:50:00,51.0,49.3,29.83,North,9,8.0,-999.0,94,0.00,,,0.00,Wunderground v.1.15,2013-09-16 16:50:00,
2013-09-16 12:55:00,50.9,49.2,29.83,NNE,18,8.0,-999.0,94,0.00,,,0.00,Wunderground v.1.15,2013-09-16 16:55:00,
2013-09-16 13:00:00,50.9,49.5,29.83,NNE,18,9.0,-999.0,95,0.00,,,0.00,Wunderground v.1.15,2013-09-16 17:00:00,
2013-09-16 13:10:00,50.8,49.4,29.84,NNE,14,8.0,-999.0,95,0.00,,,0.00,Wunderground v.1.15,2013-09-16 17:10:00,
2013-09-16 13:15:00,50.8,49.4,29.84,North,355,8.0,-999.0,95,0.00,,,0.00,Wunderground v.1.15,2013-09-16 17:15:00,
2013-09-16 13:20:00,50.7,49.3,29.84,North,11,8.0,-999.0,95,0.00,,,0.00,Wunderground v.1.15,2013-09-16 17:20:00,
2013-09-16 13:25:00,50.8,49.4,29.84,North,11,8.0,-999.0,95,0.00,,,0.00,Wunderground v.1.15,2013-09-16 17:25:00,
2013-09-16 13:30:00,50.6,49.2,29.84,NNE,15,8.0,-999.0,95,0.00,,,0.00,Wunderground v.1.15,2013-09-16 17:30:00,
2013-09-16 13:40:00,50.2,48.5,29.85,North,360,9.0,-999.0,94,0.00,,,0.00,Wunderground v.1.15,2013-09-16 17:40:00,
2013-09-16 13:50:00,50.3,48.9,29.85,NNE,16,7.0,-999.0,95,0.00,,,0.00,Wunderground v.1.15,2013-09-16 17:50:00,
2013-09-16 13:55:00,50.1,48.7,29.86,NNE,15,7.0,-999.0,95,0.00,,,0.00,Wunderground v.1.15,2013-09-16 17:55:00,
2013-09-16 14:00:00,50.1,48.7,29.86,NNE,18,7.0,-999.0,95,0.00,,,0.00,Wunderground v.1.15,2013-09-16 18:00:00,
2013-09-16 14:10:00,50.0,48.6,29.86,North,5,7.0,-999.0,95,0.00,,,0.00,Wunderground v.1.15,2013-09-16 18:10:00,
2013-09-16 14:15:00,50.2,48.8,29.86,North,360,6.0,-999.0,95,0.00,,,0.00,Wunderground v.1.15,2013-09-16 18:15:00,
2013-09-16 14:25:00,50.3,48.9,29.86,NNE,13,6.0,-999.0,95,0.00,,,0.00,Wunderground v.1.15,2013-09-16 18:25:00,
2013-09-16 14:30:00,50.0,48.6,29.86,NNE,19,6.0,-999.0,95,0.00,,,0.00,Wunderground v.1.15,2013-09-16 18:30:00,
2013-09-16 14:35:00,49.7,48.0,29.86,NNE,13,7.0,-999.0,94,0.00,,,0.00,Wunderground v.1.15,2013-09-16 18:35:00,
2013-09-16 14:40:00,49.6,47.9,29.87,North,10,7.0,-999.0,94,0.00,,,0.00,Wunderground v.1.15,2013-09-16 18:40:00,
2013-09-16 14:45:00,49.7,48.3,29.87,NNE,15,7.0,-999.0,95,0.00,,,0.00,Wunderground v.1.15,2013-09-16 18:45:00,
2013-09-16 14:55:00,49.7,48.3,29.87,North,5,6.0,-999.0,95,0.00,,,0.00,Wunderground v.1.15,2013-09-16 18:55:00,
2013-09-16 15:00:00,49.5,48.1,29.87,NNE,21,7.0,-999.0,95,0.00,,,0.00,Wunderground v.1.15,2013-09-16 19:00:00,
2013-09-16 15:10:00,49.3,47.9,29.87,North,5,7.0,-999.0,95,0.00,,,0.00,Wunderground v.1.15,2013-09-16 19:10:00,
2013-09-16 15:15:00,49.2,47.8,29.87,North,10,7.0,-999.0,95,0.00,,,0.00,Wunderground v.1.15,2013-09-16 19:15:00,
2013-09-16 15:20:00,49.2,47.8,29.87,NNW,347,7.0,-999.0,95,0.00,,,0.00,Wunderground v.1.15,2013-09-16 19:20:00,
2013-09-16 15:30:00,49.2,47.8,29.88,North,360,8.0,-999.0,95,0.00,,,0.00,Wunderground v.1.15,2013-09-16 19:30:00,
2013-09-16 15:35:00,49.1,47.7,29.88,NNW,348,8.0,-999.0,95,0.00,,,0.00,Wunderground v.1.15,2013-09-16 19:35:00,
2013-09-16 15:40:00,49.1,47.7,29.87,North,360,7.0,-999.0,95,0.00,,,0.00,Wunderground v.1.15,2013-09-16 19:40:00,
2013-09-16 15:45:00,49.0,47.6,29.88,NNE,21,6.0,-999.0,95,0.00,,,0.00,Wunderground v.1.15,2013-09-16 19:45:00,
2013-09-16 15:50:00,48.8,47.4,29.88,NNE,12,6.0,-999.0,95,0.00,,,0.00,Wunderground v.1.15,2013-09-16 19:50:00,
2013-09-16 16:00:00,48.8,47.4,29.88,North,5,6.0,-999.0,95,0.00,,,0.00,Wunderground v.1.15,2013-09-16 20:00:00,
2013-09-16 16:10:00,48.8,47.4,29.88,North,360,7.0,-999.0,95,0.00,,,0.00,Wunderground v.1.15,2013-09-16 20:10:00,
2013-09-16 16:15:00,48.8,47.4,29.88,NNE,12,6.0,-999.0,95,0.00,,,0.00,Wunderground v.1.15,2013-09-16 20:15:00,
2013-09-16 16:20:00,48.7,47.3,29.88,NNE,17,6.0,-999.0,95,0.00,,,0.00,Wunderground v.1.15,2013-09-16 20:20:00,
2013-09-16 16:25:00,48.7,47.3,29.88,North,5,6.0,-999.0,95,0.00,,,0.00,Wunderground v.1.15,2013-09-16 20:25:00,
2013-09-16 16:35:00,48.6,47.2,29.89,NNE,20,5.0,-999.0,95,0.00,,,0.00,Wunderground v.1.15,2013-09-16 20:35:00,
2013-09-16 16:40:00,48.5,47.1,29.89,NNE,13,5.0,-999.0,95,0.00,,,0.00,Wunderground v.1.15,2013-09-16 20:40:00,
2013-09-16 16:45:00,48.6,47.2,29.89,North,9,5.0,-999.0,95,0.00,,,0.00,Wunderground v.1.15,2013-09-16 20:45:00,
2013-09-16 16:50:00,48.6,47.2,29.89,North,360,5.0,-999.0,95,0.00,,,0.00,Wunderground v.1.15,2013-09-16 20:50:00,
2013-09-16 16:55:00,48.6,47.2,29.89,North,9,5.0,-999.0,95,0.00,,,0.00,Wunderground v.1.15,2013-09-16 20:55:00,
2013-09-16 17:00:00,48.4,46.8,29.89,NNE,15,5.0,-999.0,94,0.00,,,0.00,Wunderground v.1.15,2013-09-16 21:00:00,
2013-09-16 17:10:00,48.6,47.0,29.90,NNE,16,5.0,-999.0,94,0.00,,,0.00,Wunderground v.1.15,2013-09-16 21:10:00,
2013-09-16 17:15:00,48.6,47.0,29.90,North,5,6.0,-999.0,94,0.00,,,0.00,Wunderground v.1.15,2013-09-16 21:15:00,
2013-09-16 17:20:00,48.6,47.0,29.90,North,9,7.0,-999.0,94,0.00,,,0.00,Wunderground v.1.15,2013-09-16 21:20:00,
2013-09-16 17:25:00,48.4,46.8,29.90,NNE,15,7.0,-999.0,94,0.00,,,0.00,Wunderground v.1.15,2013-09-16 21:25:00,
2013-09-16 17:30:00,48.4,46.8,29.90,NNE,16,7.0,-999.0,94,0.00,,,0.00,Wunderground v.1.15,2013-09-16 21:30:00,
2013-09-16 17:40:00,48.5,46.9,29.91,NNE,18,5.0,-999.0,94,0.00,,,0.00,Wunderground v.1.15,2013-09-16 21:40:00,
2013-09-16 17:45:00,48.6,47.0,29.91,NNE,17,4.0,-999.0,94,0.00,,,0.00,Wunderground v.1.15,2013-09-16 21:45:00,
2013-09-16 17:50:00,48.6,47.0,29.91,NNE,12,4.0,-999.0,94,0.00,,,0.00,Wunderground v.1.15,2013-09-16 21:50:00,
2013-09-16 17:55:00,48.7,46.8,29.91,North,360,5.0,-999.0,93,0.00,,,0.00,Wunderground v.1.15,2013-09-16 21:55:00,
2013-09-16 18:00:00,48.6,46.7,29.91,North,5,6.0,-999.0,93,0.00,,,0.00,Wunderground v.1.15,2013-09-16 22:00:00,
2013-09-16 18:10:00,48.3,46.4,29.91,North,5,6.0,-999.0,93,0.00,,,0.00,Wunderground v.1.15,2013-09-16 22:10:00,
2013-09-16 18:15:00,48.4,46.5,29.92,North,5,5.0,-999.0,93,0.00,,,0.00,Wunderground v.1.15,2013-09-16 22:15:00,
2013-09-16 18:20:00,48.4,46.2,29.92,North,360,4.0,-999.0,92,0.00,,,0.00,Wunderground v.1.15,2013-09-16 22:20:00,
2013-09-16 18:25:00,48.4,46.2,29.92,North,5,4.0,-999.0,92,0.00,,,0.00,Wunderground v.1.15,2013-09-16 22:25:00,
2013-09-16 18:30:00,48.4,46.2,29.92,North,5,4.0,-999.0,92,0.00,,,0.00,Wunderground v.1.15,2013-09-16 22:30:00,
2013-09-16 18:35:00,48.3,46.1,29.92,North,5,4.0,-999.0,92,0.00,,,0.00,Wunderground v.1.15,2013-09-16 22:35:00,
2013-09-16 18:45:00,48.1,45.9,29.93,North,5,5.0,-999.0,92,0.00,,,0.00,Wunderground v.1.15,2013-09-16 22:45:00,
2013-09-16 18:50:00,47.9,45.4,29.93,North,9,5.0,-999.0,91,0.00,,,0.00,Wunderground v.1.15,2013-09-16 22:50:00,
2013-09-16 18:55:00,47.8,44.7,29.93,North,5,5.0,-999.0,89,0.00,,,0.00,Wunderground v.1.15,2013-09-16 22:55:00,
2013-09-16 19:00:00,47.8,44.1,29.93,North,5,4.0,-999.0,87,0.00,,,0.00,Wunderground v.1.15,2013-09-16 23:00:00,
2013-09-16 19:10:00,48.0,43.7,29.93,North,9,3.0,-999.0,85,0.00,,,0.00,Wunderground v.1.15,2013-09-16 23:10:00,
2013-09-16 19:15:00,48.2,43.9,29.93,North,9,3.0,-999.0,85,0.00,,,0.00,Wunderground v.1.15,2013-09-16 23:15:00,
2013-09-16 19:20:00,48.2,44.2,29.94,North,9,3.0,-999.0,86,0.00,,,0.00,Wunderground v.1.15,2013-09-16 23:20:00,
2013-09-16 19:25:00,48.1,44.1,29.94,North,9,2.0,-999.0,86,0.00,,,0.00,Wunderground v.1.15,2013-09-16 23:25:00,
2013-09-16 19:30:00,47.8,43.8,29.94,North,5,3.0,-999.0,86,0.00,,,0.00,Wunderground v.1.15,2013-09-16 23:30:00,
2013-09-16 19:35:00,47.6,43.6,29.94,North,5,3.0,-999.0,86,0.00,,,0.00,Wunderground v.1.15,2013-09-16 23:35:00,
2013-09-16 19:40:00,47.5,43.2,29.94,North,5,2.0,-999.0,85,0.00,,,0.00,Wunderground v.1.15,2013-09-16 23:40:00,
2013-09-16 19:50:00,47.4,43.1,29.94,North,5,2.0,-999.0,85,0.00,,,0.00,Wunderground v.1.15,2013-09-16 23:50:00,
2013-09-16 19:55:00,47.4,43.4,29.94,North,5,2.0,-999.0,86,0.00,,,0.00,Wunderground v.1.15,2013-09-16 23:55:00,
2013-09-16 20:00:00,47.4,43.4,29.94,North,5,2.0,-999.0,86,0.00,,,0.00,Wunderground v.1.15,2013-09-17 00:00:00,
2013-09-16 20:10:00,47.3,43.3,29.95,North,5,2.0,-999.0,86,0.00,,,0.00,Wunderground v.1.15,2013-09-17 00:10:00,
2013-09-16 20:15:00,47.1,43.4,29.95,North,5,2.0,-999.0,87,0.00,,,0.00,Wunderground v.1.15,2013-09-17 00:15:00,
2013-09-16 20:20:00,46.9,43.2,29.95,North,5,1.0,-999.0,87,0.00,,,0.00,Wunderground v.1.15,2013-09-17 00:20:00,
2013-09-16 20:30:00,46.2,42.8,29.96,North,5,2.0,-999.0,88,0.00,,,0.00,Wunderground v.1.15,2013-09-17 00:30:00,
2013-09-16 20:35:00,45.9,42.5,29.96,North,5,2.0,-999.0,88,0.00,,,0.00,Wunderground v.1.15,2013-09-17 00:35:00,
2013-09-16 20:40:00,45.8,42.7,29.96,North,5,2.0,-999.0,89,0.00,,,0.00,Wunderground v.1.15,2013-09-17 00:40:00,
2013-09-16 20:45:00,45.6,42.5,29.97,North,5,2.0,-999.0,89,0.00,,,0.00,Wunderground v.1.15,2013-09-17 00:45:00,
2013-09-16 20:50:00,45.4,42.3,29.97,North,5,1.0,-999.0,89,0.00,,,0.00,Wunderground v.1.15,2013-09-17 00:50:00,
2013-09-16 20:55:00,45.3,42.2,29.97,North,5,1.0,-999.0,89,0.00,,,0.00,Wunderground v.1.15,2013-09-17 00:55:00,
2013-09-16 21:00:00,45.2,42.2,29.97,North,5,1.0,-999.0,89,0.00,,,0.00,Wunderground v.1.15,2013-09-17 01:00:00,
2013-09-16 21:10:00,45.1,42.3,29.98,North,5,1.0,-999.0,90,0.00,,,0.00,Wunderground v.1.15,2013-09-17 01:10:00,
2013-09-16 21:15:00,45.0,42.2,29.98,North,5,1.0,-999.0,90,0.00,,,0.00,Wunderground v.1.15,2013-09-17 01:15:00,
2013-09-16 21:20:00,44.8,42.0,29.98,North,5,1.0,-999.0,90,0.00,,,0.00,Wunderground v.1.15,2013-09-17 01:20:00,
2013-09-16 21:25:00,44.7,41.9,29.98,North,5,1.0,-999.0,90,0.00,,,0.00,Wunderground v.1.15,2013-09-17 01:25:00,
2013-09-16 21:30:00,44.6,41.8,29.98,North,5,1.0,-999.0,90,0.00,,,0.00,Wunderground v.1.15,2013-09-17 01:30:00,
2013-09-16 21:35:00,44.5,41.5,29.98,North,5,1.0,-999.0,89,0.00,,,0.00,Wunderground v.1.15,2013-09-17 01:35:00,
2013-09-16 21:40:00,44.3,41.3,29.98,North,5,2.0,-999.0,89,0.00,,,0.00,Wunderground v.1.15,2013-09-17 01:40:00,
2013-09-16 21:45:00,44.4,41.7,29.98,North,5,2.0,-999.0,90,0.00,,,0.00,Wunderground v.1.15,2013-09-17 01:45:00,
2013-09-16 21:55:00,44.5,41.5,29.98,North,5,1.0,-999.0,89,0.00,,,0.00,Wunderground v.1.15,2013-09-17 01:55:00,
2013-09-16 22:00:00,44.5,41.7,29.98,North,5,1.0,-999.0,90,0.00,,,0.00,Wunderground v.1.15,2013-09-17 02:00:00,
2013-09-16 22:10:00,44.6,41.8,29.98,North,5,2.0,-999.0,90,0.00,,,0.00,Wunderground v.1.15,2013-09-17 02:10:00,
2013-09-16 22:15:00,44.6,41.8,29.99,North,5,2.0,-999.0,90,0.00,,,0.00,Wunderground v.1.15,2013-09-17 02:15:00,
2013-09-16 22:20:00,44.9,42.1,29.99,North,5,3.0,-999.0,90,0.00,,,0.00,Wunderground v.1.15,2013-09-17 02:20:00,
2013-09-16 22:30:00,45.4,42.6,29.99,North,5,3.0,-999.0,90,0.00,,,0.00,Wunderground v.1.15,2013-09-17 02:30:00,
2013-09-16 22:35:00,45.5,42.7,29.99,North,5,3.0,-999.0,90,0.00,,,0.00,Wunderground v.1.15,2013-09-17 02:35:00,
2013-09-16 22:40:00,45.5,43.0,29.99,North,5,3.0,-999.0,91,0.00,,,0.00,Wunderground v.1.15,2013-09-17 02:40:00,
2013-09-16 22:45:00,45.2,42.7,29.99,North,5,3.0,-999.0,91,0.00,,,0.00,Wunderground v.1.15,2013-09-17 02:45:00,
2013-09-16 22:50:00,44.9,42.4,29.99,North,5,3.0,-999.0,91,0.00,,,0.00,Wunderground v.1.15,2013-09-17 02:50:00,
2013-09-16 23:00:00,44.6,42.4,30.00,North,5,3.0,-999.0,92,0.00,,,0.00,Wunderground v.1.15,2013-09-17 03:00:00,
2013-09-16 23:10:00,44.5,42.3,30.00,North,5,2.0,-999.0,92,0.00,,,0.00,Wunderground v.1.15,2013-09-17 03:10:00,
2013-09-16 23:15:00,44.5,42.3,30.00,North,360,3.0,-999.0,92,0.00,,,0.00,Wunderground v.1.15,2013-09-17 03:15:00,
2013-09-16 23:20:00,44.4,41.9,30.00,North,360,3.0,-999.0,91,0.00,,,0.00,Wunderground v.1.15,2013-09-17 03:20:00,
2013-09-16 23:25:00,44.4,41.9,30.00,North,360,3.0,-999.0,91,0.00,,,0.00,Wunderground v.1.15,2013-09-17 03:25:00,
2013-09-16 23:35:00,44.3,41.6,30.00,North,355,3.0,-999.0,90,0.00,,,0.00,Wunderground v.1.15,2013-09-17 03:35:00,
2013-09-16 23:40:00,44.3,41.6,30.00,North,355,4.0,-999.0,90,0.00,,,0.00,Wunderground v.1.15,2013-09-17 03:40:00,
2013-09-16 23:45:00,44.4,41.7,30.00,North,355,4.0,-999.0,90,0.00,,,0.00,Wunderground v.1.15,2013-09-17 03:45:00,
2013-09-16 23:50:00,44.5,41.5,30.00,North,355,3.0,-999.0,89,0.00,,,0.00,Wunderground v.1.15,2013-09-17 03:50:00,
2013-09-16 23:55:00,44.4,41.4,30.00,North,355,2.0,-999.0,89,0.00,,,0.00,Wunderground v.1.15,2013-09-17 03:55:00,